sensor_id;sensor_type;location;lat;lon;timestamp;P1;durP1;ratioP1;P2;durP2;ratioP2
21392;SDS011;10857;52.228;21.026;2023-03-16T00:01:25;39.07;;;16.20;;
21392;SDS011;10857;52.228;21.026;2023-03-16T00:03:53;39.37;;;15.83;;
21392;SDS011;10857;52.228;21.026;2023-03-16T00:06:20;39.80;;;16.13;;
21392;SDS011;10857;52.228;21.026;2023-03-16T00:08:50;38.77;;;16.83;;
21392;SDS011;10857;52.228;21.026;2023-03-16T00:11:17;38.27;;;15.67;;
21392;SDS011;10857;52.228;21.026;2023-03-16T00:13:44;43.63;;;16.67;;
21392;SDS011;10857;52.228;21.026;2023-03-16T00:16:17;43.03;;;16.63;;
21392;SDS011;10857;52.228;21.026;2023-03-16T00:18:44;43.10;;;17.30;;
21392;SDS011;10857;52.228;21.026;2023-03-16T00:21:12;35.67;;;14.63;;
21392;SDS011;10857;52.228;21.026;2023-03-16T00:23:40;43.87;;;16.80;;
21392;SDS011;10857;52.228;21.026;2023-03-16T00:26:07;39.93;;;16.03;;
21392;SDS011;10857;52.228;21.026;2023-03-16T00:28:35;38.00;;;17.20;;
21392;SDS011;10857;52.228;21.026;2023-03-16T00:31:03;41.47;;;15.90;;
21392;SDS011;10857;52.228;21.026;2023-03-16T00:33:32;38.73;;;16.40;;
21392;SDS011;10857;52.228;21.026;2023-03-16T00:36:04;40.50;;;15.43;;
21392;SDS011;10857;52.228;21.026;2023-03-16T00:38:35;35.00;;;16.50;;
21392;SDS011;10857;52.228;21.026;2023-03-16T00:41:04;34.50;;;15.10;;
21392;SDS011;10857;52.228;21.026;2023-03-16T00:43:34;35.37;;;15.70;;
21392;SDS011;10857;52.228;21.026;2023-03-16T00:46:12;34.93;;;14.80;;
21392;SDS011;10857;52.228;21.026;2023-03-16T00:48:42;36.07;;;15.80;;
21392;SDS011;10857;52.228;21.026;2023-03-16T00:51:14;39.47;;;15.50;;
21392;SDS011;10857;52.228;21.026;2023-03-16T00:53:43;37.00;;;16.23;;
21392;SDS011;10857;52.228;21.026;2023-03-16T00:56:11;33.73;;;15.47;;
21392;SDS011;10857;52.228;21.026;2023-03-16T00:58:39;36.97;;;15.20;;
21392;SDS011;10857;52.228;21.026;2023-03-16T01:01:14;37.93;;;14.70;;
21392;SDS011;10857;52.228;21.026;2023-03-16T01:03:42;35.70;;;14.20;;
21392;SDS011;10857;52.228;21.026;2023-03-16T01:06:11;35.00;;;14.30;;
21392;SDS011;10857;52.228;21.026;2023-03-16T01:08:42;32.90;;;13.00;;
21392;SDS011;10857;52.228;21.026;2023-03-16T01:11:14;35.80;;;13.40;;
21392;SDS011;10857;52.228;21.026;2023-03-16T01:13:44;35.70;;;13.50;;
21392;SDS011;10857;52.228;21.026;2023-03-16T01:16:15;32.77;;;12.73;;
21392;SDS011;10857;52.228;21.026;2023-03-16T01:19:01;34.03;;;14.20;;
21392;SDS011;10857;52.228;21.026;2023-03-16T01:21:28;33.40;;;12.93;;
21392;SDS011;10857;52.228;21.026;2023-03-16T01:23:55;33.90;;;13.20;;
21392;SDS011;10857;52.228;21.026;2023-03-16T01:26:22;35.53;;;13.33;;
21392;SDS011;10857;52.228;21.026;2023-03-16T01:28:50;32.53;;;12.40;;
21392;SDS011;10857;52.228;21.026;2023-03-16T01:31:17;32.27;;;13.23;;
21392;SDS011;10857;52.228;21.026;2023-03-16T01:33:44;33.00;;;13.30;;
21392;SDS011;10857;52.228;21.026;2023-03-16T01:36:17;30.40;;;13.20;;
21392;SDS011;10857;52.228;21.026;2023-03-16T01:38:52;32.93;;;12.60;;
21392;SDS011;10857;52.228;21.026;2023-03-16T01:41:21;33.43;;;13.20;;
21392;SDS011;10857;52.228;21.026;2023-03-16T01:43:48;28.53;;;12.13;;
21392;SDS011;10857;52.228;21.026;2023-03-16T01:46:18;28.97;;;10.77;;
21392;SDS011;10857;52.228;21.026;2023-03-16T01:52:03;27.17;;;10.37;;
21392;SDS011;10857;52.228;21.026;2023-03-16T01:54:43;26.60;;;9.70;;
21392;SDS011;10857;52.228;21.026;2023-03-16T01:57:14;28.53;;;11.10;;
21392;SDS011;10857;52.228;21.026;2023-03-16T02:02:19;28.83;;;10.03;;
21392;SDS011;10857;52.228;21.026;2023-03-16T02:07:25;24.10;;;9.63;;
21392;SDS011;10857;52.228;21.026;2023-03-16T02:09:55;24.80;;;10.03;;
21392;SDS011;10857;52.228;21.026;2023-03-16T02:12:25;26.77;;;10.27;;
21392;SDS011;10857;52.228;21.026;2023-03-16T02:14:54;26.50;;;10.10;;
21392;SDS011;10857;52.228;21.026;2023-03-16T02:17:24;19.70;;;8.27;;
21392;SDS011;10857;52.228;21.026;2023-03-16T02:22:30;21.77;;;8.63;;
21392;SDS011;10857;52.228;21.026;2023-03-16T02:25:01;18.13;;;8.17;;
21392;SDS011;10857;52.228;21.026;2023-03-16T02:27:30;19.23;;;8.53;;
21392;SDS011;10857;52.228;21.026;2023-03-16T02:32:52;24.23;;;8.77;;
21392;SDS011;10857;52.228;21.026;2023-03-16T02:35:20;17.93;;;8.17;;
21392;SDS011;10857;52.228;21.026;2023-03-16T02:37:48;19.77;;;8.07;;
21392;SDS011;10857;52.228;21.026;2023-03-16T02:40:20;19.13;;;7.67;;
21392;SDS011;10857;52.228;21.026;2023-03-16T02:42:54;22.83;;;8.20;;
21392;SDS011;10857;52.228;21.026;2023-03-16T02:48:20;23.50;;;8.07;;
21392;SDS011;10857;52.228;21.026;2023-03-16T02:50:52;19.20;;;7.90;;
21392;SDS011;10857;52.228;21.026;2023-03-16T02:53:20;21.57;;;7.97;;
21392;SDS011;10857;52.228;21.026;2023-03-16T02:55:48;17.03;;;8.27;;
21392;SDS011;10857;52.228;21.026;2023-03-16T02:58:16;20.97;;;7.63;;
21392;SDS011;10857;52.228;21.026;2023-03-16T03:00:45;20.00;;;7.83;;
21392;SDS011;10857;52.228;21.026;2023-03-16T03:03:15;19.60;;;8.27;;
21392;SDS011;10857;52.228;21.026;2023-03-16T03:05:42;23.90;;;7.77;;
21392;SDS011;10857;52.228;21.026;2023-03-16T03:08:09;21.33;;;7.87;;
21392;SDS011;10857;52.228;21.026;2023-03-16T03:10:36;21.43;;;8.03;;
21392;SDS011;10857;52.228;21.026;2023-03-16T03:13:03;26.53;;;8.30;;
21392;SDS011;10857;52.228;21.026;2023-03-16T03:15:33;23.20;;;8.60;;
21392;SDS011;10857;52.228;21.026;2023-03-16T03:18:05;23.67;;;8.80;;
21392;SDS011;10857;52.228;21.026;2023-03-16T03:20:32;24.80;;;10.00;;
21392;SDS011;10857;52.228;21.026;2023-03-16T03:23:00;22.40;;;10.00;;
21392;SDS011;10857;52.228;21.026;2023-03-16T03:25:28;28.40;;;9.53;;
21392;SDS011;10857;52.228;21.026;2023-03-16T03:27:55;22.70;;;9.70;;
21392;SDS011;10857;52.228;21.026;2023-03-16T03:30:23;24.13;;;9.50;;
21392;SDS011;10857;52.228;21.026;2023-03-16T03:32:51;23.50;;;9.50;;
21392;SDS011;10857;52.228;21.026;2023-03-16T03:35:19;22.60;;;9.10;;
21392;SDS011;10857;52.228;21.026;2023-03-16T03:37:47;23.07;;;9.03;;
21392;SDS011;10857;52.228;21.026;2023-03-16T03:40:15;22.33;;;9.10;;
21392;SDS011;10857;52.228;21.026;2023-03-16T03:42:46;27.23;;;10.20;;
21392;SDS011;10857;52.228;21.026;2023-03-16T03:45:15;26.43;;;9.63;;
21392;SDS011;10857;52.228;21.026;2023-03-16T03:47:42;25.17;;;10.00;;
21392;SDS011;10857;52.228;21.026;2023-03-16T03:50:15;26.03;;;10.57;;
21392;SDS011;10857;52.228;21.026;2023-03-16T03:53:03;28.63;;;9.93;;
21392;SDS011;10857;52.228;21.026;2023-03-16T03:55:37;26.00;;;10.37;;
21392;SDS011;10857;52.228;21.026;2023-03-16T03:58:04;27.77;;;10.83;;
21392;SDS011;10857;52.228;21.026;2023-03-16T04:00:31;28.83;;;11.13;;
21392;SDS011;10857;52.228;21.026;2023-03-16T04:02:58;29.17;;;10.47;;
21392;SDS011;10857;52.228;21.026;2023-03-16T04:05:32;23.63;;;10.10;;
21392;SDS011;10857;52.228;21.026;2023-03-16T04:08:00;25.13;;;11.23;;
21392;SDS011;10857;52.228;21.026;2023-03-16T04:10:28;25.97;;;10.10;;
21392;SDS011;10857;52.228;21.026;2023-03-16T04:12:58;28.17;;;10.90;;
21392;SDS011;10857;52.228;21.026;2023-03-16T04:15:30;28.20;;;10.13;;
21392;SDS011;10857;52.228;21.026;2023-03-16T04:18:16;25.80;;;10.07;;
21392;SDS011;10857;52.228;21.026;2023-03-16T04:20:43;28.77;;;10.43;;
21392;SDS011;10857;52.228;21.026;2023-03-16T04:23:14;26.27;;;10.63;;
21392;SDS011;10857;52.228;21.026;2023-03-16T04:25:44;26.53;;;10.60;;
21392;SDS011;10857;52.228;21.026;2023-03-16T04:28:13;37.57;;;10.87;;
21392;SDS011;10857;52.228;21.026;2023-03-16T04:30:45;23.73;;;10.10;;
21392;SDS011;10857;52.228;21.026;2023-03-16T04:33:20;24.57;;;9.10;;
21392;SDS011;10857;52.228;21.026;2023-03-16T04:35:48;26.83;;;10.50;;
21392;SDS011;10857;52.228;21.026;2023-03-16T04:38:16;25.87;;;10.93;;
21392;SDS011;10857;52.228;21.026;2023-03-16T04:40:54;31.47;;;12.03;;
21392;SDS011;10857;52.228;21.026;2023-03-16T04:43:26;32.43;;;12.40;;
21392;SDS011;10857;52.228;21.026;2023-03-16T04:45:59;30.33;;;11.53;;
21392;SDS011;10857;52.228;21.026;2023-03-16T04:48:29;29.33;;;11.03;;
21392;SDS011;10857;52.228;21.026;2023-03-16T04:50:58;32.97;;;12.43;;
21392;SDS011;10857;52.228;21.026;2023-03-16T04:53:29;31.13;;;12.87;;
21392;SDS011;10857;52.228;21.026;2023-03-16T04:56:01;34.07;;;13.83;;
21392;SDS011;10857;52.228;21.026;2023-03-16T04:58:30;31.23;;;14.07;;
21392;SDS011;10857;52.228;21.026;2023-03-16T05:00:59;39.03;;;15.70;;
21392;SDS011;10857;52.228;21.026;2023-03-16T05:03:29;29.67;;;13.63;;
21392;SDS011;10857;52.228;21.026;2023-03-16T05:05:56;28.23;;;14.60;;
21392;SDS011;10857;52.228;21.026;2023-03-16T05:08:25;34.27;;;14.80;;
21392;SDS011;10857;52.228;21.026;2023-03-16T05:10:56;30.07;;;14.20;;
21392;SDS011;10857;52.228;21.026;2023-03-16T05:13:27;35.37;;;15.23;;
21392;SDS011;10857;52.228;21.026;2023-03-16T05:15:57;37.73;;;15.67;;
21392;SDS011;10857;52.228;21.026;2023-03-16T05:18:28;37.37;;;15.67;;
21392;SDS011;10857;52.228;21.026;2023-03-16T05:20:55;36.57;;;15.80;;
21392;SDS011;10857;52.228;21.026;2023-03-16T05:23:27;33.40;;;14.03;;
21392;SDS011;10857;52.228;21.026;2023-03-16T05:25:59;31.90;;;12.83;;
21392;SDS011;10857;52.228;21.026;2023-03-16T05:28:28;31.67;;;12.60;;
21392;SDS011;10857;52.228;21.026;2023-03-16T05:30:59;32.73;;;13.23;;
21392;SDS011;10857;52.228;21.026;2023-03-16T05:33:34;28.10;;;13.07;;
21392;SDS011;10857;52.228;21.026;2023-03-16T05:36:06;29.60;;;11.80;;
21392;SDS011;10857;52.228;21.026;2023-03-16T05:38:35;27.00;;;11.70;;
21392;SDS011;10857;52.228;21.026;2023-03-16T05:41:03;27.07;;;11.83;;
21392;SDS011;10857;52.228;21.026;2023-03-16T05:43:44;30.27;;;11.93;;
21392;SDS011;10857;52.228;21.026;2023-03-16T05:46:12;25.30;;;11.87;;
21392;SDS011;10857;52.228;21.026;2023-03-16T05:48:40;28.27;;;12.03;;
21392;SDS011;10857;52.228;21.026;2023-03-16T05:51:10;31.93;;;11.83;;
21392;SDS011;10857;52.228;21.026;2023-03-16T05:53:40;27.87;;;12.33;;
21392;SDS011;10857;52.228;21.026;2023-03-16T05:56:15;29.40;;;12.47;;
21392;SDS011;10857;52.228;21.026;2023-03-16T05:58:44;38.07;;;13.57;;
21392;SDS011;10857;52.228;21.026;2023-03-16T06:01:11;32.93;;;12.93;;
21392;SDS011;10857;52.228;21.026;2023-03-16T06:03:40;31.53;;;12.53;;
21392;SDS011;10857;52.228;21.026;2023-03-16T06:06:12;29.83;;;13.10;;
21392;SDS011;10857;52.228;21.026;2023-03-16T06:08:51;29.00;;;12.73;;
21392;SDS011;10857;52.228;21.026;2023-03-16T06:11:20;32.20;;;12.77;;
21392;SDS011;10857;52.228;21.026;2023-03-16T06:13:48;33.03;;;12.90;;
21392;SDS011;10857;52.228;21.026;2023-03-16T06:16:15;24.03;;;11.67;;
21392;SDS011;10857;52.228;21.026;2023-03-16T06:18:43;29.23;;;11.90;;
21392;SDS011;10857;52.228;21.026;2023-03-16T06:21:10;38.63;;;12.30;;
21392;SDS011;10857;52.228;21.026;2023-03-16T06:23:38;25.33;;;11.33;;
21392;SDS011;10857;52.228;21.026;2023-03-16T06:26:06;88.97;;;16.50;;
21392;SDS011;10857;52.228;21.026;2023-03-16T06:28:36;29.93;;;10.03;;
21392;SDS011;10857;52.228;21.026;2023-03-16T06:31:03;25.60;;;9.73;;
21392;SDS011;10857;52.228;21.026;2023-03-16T06:33:33;25.20;;;8.93;;
21392;SDS011;10857;52.228;21.026;2023-03-16T06:36:01;22.53;;;10.17;;
21392;SDS011;10857;52.228;21.026;2023-03-16T06:38:42;29.30;;;10.50;;
21392;SDS011;10857;52.228;21.026;2023-03-16T06:41:31;24.60;;;9.67;;
21392;SDS011;10857;52.228;21.026;2023-03-16T06:44:01;22.37;;;10.00;;
21392;SDS011;10857;52.228;21.026;2023-03-16T06:46:28;24.63;;;9.47;;
21392;SDS011;10857;52.228;21.026;2023-03-16T06:48:58;28.80;;;10.67;;
21392;SDS011;10857;52.228;21.026;2023-03-16T06:51:26;26.33;;;10.93;;
21392;SDS011;10857;52.228;21.026;2023-03-16T06:53:53;25.20;;;10.80;;
21392;SDS011;10857;52.228;21.026;2023-03-16T06:56:21;24.37;;;11.20;;
21392;SDS011;10857;52.228;21.026;2023-03-16T06:58:48;30.00;;;11.13;;
21392;SDS011;10857;52.228;21.026;2023-03-16T07:01:15;29.40;;;11.13;;
21392;SDS011;10857;52.228;21.026;2023-03-16T07:03:42;24.87;;;11.00;;
21392;SDS011;10857;52.228;21.026;2023-03-16T07:06:18;31.80;;;12.10;;
21392;SDS011;10857;52.228;21.026;2023-03-16T07:08:44;30.47;;;11.17;;
21392;SDS011;10857;52.228;21.026;2023-03-16T07:11:12;25.97;;;10.90;;
21392;SDS011;10857;52.228;21.026;2023-03-16T07:13:40;25.23;;;11.47;;
21392;SDS011;10857;52.228;21.026;2023-03-16T07:16:07;21.93;;;10.73;;
21392;SDS011;10857;52.228;21.026;2023-03-16T07:18:35;24.90;;;10.23;;
21392;SDS011;10857;52.228;21.026;2023-03-16T07:21:05;21.23;;;9.33;;
21392;SDS011;10857;52.228;21.026;2023-03-16T07:23:32;25.20;;;10.73;;
21392;SDS011;10857;52.228;21.026;2023-03-16T07:26:03;24.00;;;10.20;;
21392;SDS011;10857;52.228;21.026;2023-03-16T07:28:32;25.07;;;10.87;;
21392;SDS011;10857;52.228;21.026;2023-03-16T07:31:01;29.83;;;14.03;;
21392;SDS011;10857;52.228;21.026;2023-03-16T07:33:36;30.33;;;13.43;;
21392;SDS011;10857;52.228;21.026;2023-03-16T07:36:06;27.90;;;11.53;;
21392;SDS011;10857;52.228;21.026;2023-03-16T07:38:38;33.67;;;12.77;;
21392;SDS011;10857;52.228;21.026;2023-03-16T07:41:07;28.47;;;12.90;;
21392;SDS011;10857;52.228;21.026;2023-03-16T07:43:34;32.57;;;13.77;;
21392;SDS011;10857;52.228;21.026;2023-03-16T07:46:01;28.23;;;11.77;;
21392;SDS011;10857;52.228;21.026;2023-03-16T07:48:28;29.77;;;12.03;;
21392;SDS011;10857;52.228;21.026;2023-03-16T07:50:59;24.63;;;11.30;;
21392;SDS011;10857;52.228;21.026;2023-03-16T07:53:27;28.33;;;11.80;;
21392;SDS011;10857;52.228;21.026;2023-03-16T07:56:13;24.47;;;12.17;;
21392;SDS011;10857;52.228;21.026;2023-03-16T07:58:44;25.13;;;10.83;;
21392;SDS011;10857;52.228;21.026;2023-03-16T08:01:11;19.37;;;8.40;;
21392;SDS011;10857;52.228;21.026;2023-03-16T08:03:38;21.80;;;10.30;;
21392;SDS011;10857;52.228;21.026;2023-03-16T08:06:05;25.27;;;10.63;;
21392;SDS011;10857;52.228;21.026;2023-03-16T08:08:33;46.87;;;13.03;;
21392;SDS011;10857;52.228;21.026;2023-03-16T08:11:00;32.07;;;12.53;;
21392;SDS011;10857;52.228;21.026;2023-03-16T08:13:39;28.70;;;12.90;;
21392;SDS011;10857;52.228;21.026;2023-03-16T08:16:09;42.70;;;14.13;;
21392;SDS011;10857;52.228;21.026;2023-03-16T08:18:41;28.20;;;13.30;;
21392;SDS011;10857;52.228;21.026;2023-03-16T08:21:08;46.30;;;13.43;;
21392;SDS011;10857;52.228;21.026;2023-03-16T08:23:35;25.37;;;10.20;;
21392;SDS011;10857;52.228;21.026;2023-03-16T08:26:04;37.47;;;12.37;;
21392;SDS011;10857;52.228;21.026;2023-03-16T08:28:35;32.47;;;13.50;;
21392;SDS011;10857;52.228;21.026;2023-03-16T08:31:07;31.40;;;12.83;;
21392;SDS011;10857;52.228;21.026;2023-03-16T08:33:39;30.70;;;13.30;;
21392;SDS011;10857;52.228;21.026;2023-03-16T08:36:09;26.53;;;11.60;;
21392;SDS011;10857;52.228;21.026;2023-03-16T08:38:40;34.03;;;14.73;;
21392;SDS011;10857;52.228;21.026;2023-03-16T08:41:14;37.00;;;15.80;;
21392;SDS011;10857;52.228;21.026;2023-03-16T08:43:45;31.83;;;14.33;;
21392;SDS011;10857;52.228;21.026;2023-03-16T08:46:12;72.73;;;17.73;;
21392;SDS011;10857;52.228;21.026;2023-03-16T08:48:51;22.50;;;11.13;;
21392;SDS011;10857;52.228;21.026;2023-03-16T08:51:22;26.60;;;13.93;;
21392;SDS011;10857;52.228;21.026;2023-03-16T08:53:50;29.53;;;12.87;;
21392;SDS011;10857;52.228;21.026;2023-03-16T08:56:17;31.20;;;14.77;;
21392;SDS011;10857;52.228;21.026;2023-03-16T08:58:44;26.07;;;11.63;;
21392;SDS011;10857;52.228;21.026;2023-03-16T09:01:12;26.03;;;12.87;;
21392;SDS011;10857;52.228;21.026;2023-03-16T09:03:40;27.87;;;12.93;;
21392;SDS011;10857;52.228;21.026;2023-03-16T09:06:08;28.37;;;12.73;;
21392;SDS011;10857;52.228;21.026;2023-03-16T09:08:36;28.40;;;13.83;;
21392;SDS011;10857;52.228;21.026;2023-03-16T09:11:05;33.63;;;14.73;;
21392;SDS011;10857;52.228;21.026;2023-03-16T09:13:38;31.20;;;14.63;;
21392;SDS011;10857;52.228;21.026;2023-03-16T09:16:06;33.20;;;15.80;;
21392;SDS011;10857;52.228;21.026;2023-03-16T09:18:35;32.53;;;15.27;;
21392;SDS011;10857;52.228;21.026;2023-03-16T09:21:03;26.43;;;12.80;;
21392;SDS011;10857;52.228;21.026;2023-03-16T09:23:32;27.53;;;13.60;;
21392;SDS011;10857;52.228;21.026;2023-03-16T09:26:01;31.83;;;13.93;;
21392;SDS011;10857;52.228;21.026;2023-03-16T09:28:30;24.10;;;11.20;;
21392;SDS011;10857;52.228;21.026;2023-03-16T09:30:58;23.35;;;12.05;;
21392;SDS011;10857;52.228;21.026;2023-03-16T09:33:25;24.03;;;11.53;;
21392;SDS011;10857;52.228;21.026;2023-03-16T09:35:54;22.17;;;10.53;;
21392;SDS011;10857;52.228;21.026;2023-03-16T09:38:23;21.57;;;10.70;;
21392;SDS011;10857;52.228;21.026;2023-03-16T09:40:58;23.00;;;11.33;;
21392;SDS011;10857;52.228;21.026;2023-03-16T09:49:12;21.27;;;8.90;;
21392;SDS011;10857;52.228;21.026;2023-03-16T09:54:24;19.80;;;8.10;;
21392;SDS011;10857;52.228;21.026;2023-03-16T09:56:57;23.00;;;9.23;;
21392;SDS011;10857;52.228;21.026;2023-03-16T09:59:25;20.10;;;9.40;;
21392;SDS011;10857;52.228;21.026;2023-03-16T10:02:00;21.47;;;9.80;;
21392;SDS011;10857;52.228;21.026;2023-03-16T10:04:37;58.50;;;12.57;;
21392;SDS011;10857;52.228;21.026;2023-03-16T10:12:44;20.33;;;8.60;;
21392;SDS011;10857;52.228;21.026;2023-03-16T10:15:17;15.90;;;7.87;;
21392;SDS011;10857;52.228;21.026;2023-03-16T10:18:09;20.67;;;8.97;;
21392;SDS011;10857;52.228;21.026;2023-03-16T10:20:41;21.13;;;10.00;;
21392;SDS011;10857;52.228;21.026;2023-03-16T10:23:17;30.27;;;10.17;;
21392;SDS011;10857;52.228;21.026;2023-03-16T10:25:50;18.27;;;8.47;;
21392;SDS011;10857;52.228;21.026;2023-03-16T10:28:21;22.07;;;8.30;;
21392;SDS011;10857;52.228;21.026;2023-03-16T10:30:52;23.50;;;8.43;;
21392;SDS011;10857;52.228;21.026;2023-03-16T10:33:22;22.13;;;6.53;;
21392;SDS011;10857;52.228;21.026;2023-03-16T10:43:43;10.63;;;4.93;;
21392;SDS011;10857;52.228;21.026;2023-03-16T10:49:24;11.93;;;5.67;;
21392;SDS011;10857;52.228;21.026;2023-03-16T10:51:52;39.77;;;8.17;;
21392;SDS011;10857;52.228;21.026;2023-03-16T10:54:27;15.83;;;5.73;;
21392;SDS011;10857;52.228;21.026;2023-03-16T10:59:53;14.47;;;6.30;;
21392;SDS011;10857;52.228;21.026;2023-03-16T11:02:24;17.63;;;8.00;;
21392;SDS011;10857;52.228;21.026;2023-03-16T11:04:57;19.63;;;8.33;;
21392;SDS011;10857;52.228;21.026;2023-03-16T11:07:24;26.23;;;8.57;;
21392;SDS011;10857;52.228;21.026;2023-03-16T11:09:52;17.27;;;7.20;;
21392;SDS011;10857;52.228;21.026;2023-03-16T11:12:25;16.10;;;7.70;;
21392;SDS011;10857;52.228;21.026;2023-03-16T11:15:08;19.43;;;7.53;;
21392;SDS011;10857;52.228;21.026;2023-03-16T11:17:50;16.20;;;7.77;;
21392;SDS011;10857;52.228;21.026;2023-03-16T11:20:22;16.60;;;6.93;;
21392;SDS011;10857;52.228;21.026;2023-03-16T11:22:53;15.27;;;6.77;;
21392;SDS011;10857;52.228;21.026;2023-03-16T11:25:55;12.50;;;5.53;;
21392;SDS011;10857;52.228;21.026;2023-03-16T11:31:07;14.80;;;5.90;;
21392;SDS011;10857;52.228;21.026;2023-03-16T11:33:42;11.90;;;5.23;;
21392;SDS011;10857;52.228;21.026;2023-03-16T11:36:17;12.10;;;4.97;;
21392;SDS011;10857;52.228;21.026;2023-03-16T11:39:08;10.60;;;5.40;;
21392;SDS011;10857;52.228;21.026;2023-03-16T11:46:59;19.90;;;6.30;;
21392;SDS011;10857;52.228;21.026;2023-03-16T11:49:41;30.67;;;6.47;;
21392;SDS011;10857;52.228;21.026;2023-03-16T11:52:20;16.80;;;6.00;;
21392;SDS011;10857;52.228;21.026;2023-03-16T12:13:03;19.93;;;7.23;;
21392;SDS011;10857;52.228;21.026;2023-03-16T12:15:57;15.90;;;6.50;;
21392;SDS011;10857;52.228;21.026;2023-03-16T12:21:02;18.00;;;6.63;;
21392;SDS011;10857;52.228;21.026;2023-03-16T12:23:36;16.73;;;6.43;;
21392;SDS011;10857;52.228;21.026;2023-03-16T12:26:13;13.33;;;5.60;;
21392;SDS011;10857;52.228;21.026;2023-03-16T12:28:42;17.70;;;5.63;;
21392;SDS011;10857;52.228;21.026;2023-03-16T12:31:14;14.57;;;4.87;;
21392;SDS011;10857;52.228;21.026;2023-03-16T12:36:54;14.37;;;4.87;;
21392;SDS011;10857;52.228;21.026;2023-03-16T12:45:01;21.73;;;6.33;;
21392;SDS011;10857;52.228;21.026;2023-03-16T12:50:11;15.13;;;5.70;;
21392;SDS011;10857;52.228;21.026;2023-03-16T12:52:45;19.17;;;5.73;;
21392;SDS011;10857;52.228;21.026;2023-03-16T12:58:05;20.53;;;5.73;;
21392;SDS011;10857;52.228;21.026;2023-03-16T13:00:34;24.57;;;6.00;;
21392;SDS011;10857;52.228;21.026;2023-03-16T13:03:04;12.47;;;4.37;;
21392;SDS011;10857;52.228;21.026;2023-03-16T13:05:42;13.00;;;4.40;;
21392;SDS011;10857;52.228;21.026;2023-03-16T13:08:15;14.80;;;4.53;;
21392;SDS011;10857;52.228;21.026;2023-03-16T13:13:26;14.63;;;4.87;;
21392;SDS011;10857;52.228;21.026;2023-03-16T13:18:37;18.27;;;5.10;;
21392;SDS011;10857;52.228;21.026;2023-03-16T13:24:12;21.00;;;5.90;;
21392;SDS011;10857;52.228;21.026;2023-03-16T13:26:54;15.47;;;4.93;;
21392;SDS011;10857;52.228;21.026;2023-03-16T13:29:27;26.03;;;6.07;;
21392;SDS011;10857;52.228;21.026;2023-03-16T13:31:56;16.57;;;5.13;;
21392;SDS011;10857;52.228;21.026;2023-03-16T13:34:29;15.70;;;5.40;;
21392;SDS011;10857;52.228;21.026;2023-03-16T13:36:58;10.17;;;4.43;;
21392;SDS011;10857;52.228;21.026;2023-03-16T13:39:27;20.73;;;5.53;;
21392;SDS011;10857;52.228;21.026;2023-03-16T13:41:57;10.30;;;4.40;;
21392;SDS011;10857;52.228;21.026;2023-03-16T13:44:40;12.80;;;4.47;;
21392;SDS011;10857;52.228;21.026;2023-03-16T13:47:11;14.63;;;4.90;;
21392;SDS011;10857;52.228;21.026;2023-03-16T13:49:43;12.33;;;4.17;;
21392;SDS011;10857;52.228;21.026;2023-03-16T13:52:33;16.07;;;4.33;;
21392;SDS011;10857;52.228;21.026;2023-03-16T13:55:09;14.27;;;4.37;;
21392;SDS011;10857;52.228;21.026;2023-03-16T13:57:42;13.20;;;3.83;;
21392;SDS011;10857;52.228;21.026;2023-03-16T14:00:14;17.63;;;4.43;;
21392;SDS011;10857;52.228;21.026;2023-03-16T14:02:50;16.40;;;4.43;;
21392;SDS011;10857;52.228;21.026;2023-03-16T14:05:23;13.93;;;4.70;;
21392;SDS011;10857;52.228;21.026;2023-03-16T14:07:53;15.10;;;5.23;;
21392;SDS011;10857;52.228;21.026;2023-03-16T14:10:23;13.50;;;4.77;;
21392;SDS011;10857;52.228;21.026;2023-03-16T14:13:20;16.53;;;4.37;;
21392;SDS011;10857;52.228;21.026;2023-03-16T14:15:58;15.67;;;5.20;;
21392;SDS011;10857;52.228;21.026;2023-03-16T14:18:57;13.93;;;5.17;;
21392;SDS011;10857;52.228;21.026;2023-03-16T14:21:43;25.67;;;5.70;;
21392;SDS011;10857;52.228;21.026;2023-03-16T14:24:31;14.10;;;4.83;;
21392;SDS011;10857;52.228;21.026;2023-03-16T14:27:24;12.37;;;4.83;;
21392;SDS011;10857;52.228;21.026;2023-03-16T14:30:15;14.30;;;4.67;;
21392;SDS011;10857;52.228;21.026;2023-03-16T14:32:58;11.27;;;4.87;;
21392;SDS011;10857;52.228;21.026;2023-03-16T14:35:27;13.90;;;4.73;;
21392;SDS011;10857;52.228;21.026;2023-03-16T14:41:09;14.47;;;4.07;;
21392;SDS011;10857;52.228;21.026;2023-03-16T14:43:56;8.80;;;3.70;;
21392;SDS011;10857;52.228;21.026;2023-03-16T14:46:26;16.23;;;4.73;;
21392;SDS011;10857;52.228;21.026;2023-03-16T14:49:07;17.53;;;4.87;;
21392;SDS011;10857;52.228;21.026;2023-03-16T14:51:43;12.73;;;4.40;;
21392;SDS011;10857;52.228;21.026;2023-03-16T14:54:17;17.33;;;4.37;;
21392;SDS011;10857;52.228;21.026;2023-03-16T14:56:50;15.50;;;5.00;;
21392;SDS011;10857;52.228;21.026;2023-03-16T14:59:23;41.07;;;7.40;;
21392;SDS011;10857;52.228;21.026;2023-03-16T15:01:51;16.43;;;4.57;;
21392;SDS011;10857;52.228;21.026;2023-03-16T15:04:25;15.20;;;4.40;;
21392;SDS011;10857;52.228;21.026;2023-03-16T15:06:57;11.73;;;4.97;;
21392;SDS011;10857;52.228;21.026;2023-03-16T15:09:35;11.57;;;4.33;;
21392;SDS011;10857;52.228;21.026;2023-03-16T15:12:16;35.23;;;7.07;;
21392;SDS011;10857;52.228;21.026;2023-03-16T15:14:55;18.20;;;4.67;;
21392;SDS011;10857;52.228;21.026;2023-03-16T15:17:51;18.37;;;4.60;;
21392;SDS011;10857;52.228;21.026;2023-03-16T15:20:30;8.63;;;3.80;;
21392;SDS011;10857;52.228;21.026;2023-03-16T15:23:09;9.77;;;4.00;;
21392;SDS011;10857;52.228;21.026;2023-03-16T15:25:42;15.33;;;4.27;;
21392;SDS011;10857;52.228;21.026;2023-03-16T15:30:50;12.53;;;3.70;;
21392;SDS011;10857;52.228;21.026;2023-03-16T15:33:33;11.03;;;3.73;;
21392;SDS011;10857;52.228;21.026;2023-03-16T15:36:04;10.93;;;4.10;;
21392;SDS011;10857;52.228;21.026;2023-03-16T15:38:52;7.50;;;3.60;;
21392;SDS011;10857;52.228;21.026;2023-03-16T15:41:21;11.00;;;3.73;;
21392;SDS011;10857;52.228;21.026;2023-03-16T15:43:57;9.10;;;3.50;;
21392;SDS011;10857;52.228;21.026;2023-03-16T15:46:27;13.43;;;4.50;;
21392;SDS011;10857;52.228;21.026;2023-03-16T15:48:58;10.20;;;3.80;;
21392;SDS011;10857;52.228;21.026;2023-03-16T15:51:27;9.47;;;3.87;;
21392;SDS011;10857;52.228;21.026;2023-03-16T15:53:56;13.83;;;4.50;;
21392;SDS011;10857;52.228;21.026;2023-03-16T15:56:30;12.63;;;4.30;;
21392;SDS011;10857;52.228;21.026;2023-03-16T15:59:16;11.50;;;3.50;;
21392;SDS011;10857;52.228;21.026;2023-03-16T16:01:45;10.83;;;3.93;;
21392;SDS011;10857;52.228;21.026;2023-03-16T16:04:17;9.97;;;4.13;;
21392;SDS011;10857;52.228;21.026;2023-03-16T16:06:50;12.67;;;3.87;;
21392;SDS011;10857;52.228;21.026;2023-03-16T16:09:26;10.67;;;3.87;;
21392;SDS011;10857;52.228;21.026;2023-03-16T16:11:56;14.00;;;3.97;;
21392;SDS011;10857;52.228;21.026;2023-03-16T16:14:25;12.13;;;4.30;;
21392;SDS011;10857;52.228;21.026;2023-03-16T16:16:54;10.23;;;4.30;;
21392;SDS011;10857;52.228;21.026;2023-03-16T16:19:22;10.50;;;4.20;;
21392;SDS011;10857;52.228;21.026;2023-03-16T16:21:50;16.43;;;4.73;;
21392;SDS011;10857;52.228;21.026;2023-03-16T16:24:18;13.87;;;5.20;;